sensor_id;sensor_type;location;lat;lon;timestamp;temperature;humidity
35409;DHT22;34503;45.296;9.514;2024-03-17T00:01:03;22.50;79.40
35409;DHT22;34503;45.296;9.514;2024-03-17T00:01:18;22.50;74.80
35409;DHT22;34503;45.296;9.514;2024-03-17T00:01:33;22.50;74.70
35409;DHT22;34503;45.296;9.514;2024-03-17T00:01:48;22.60;75.20
35409;DHT22;34503;45.296;9.514;2024-03-17T00:02:02;22.60;75.10
35409;DHT22;34503;45.296;9.514;2024-03-17T00:02:18;22.60;75.10
35409;DHT22;34503;45.296;9.514;2024-03-17T00:02:33;22.50;74.70
35409;DHT22;34503;45.296;9.514;2024-03-17T00:02:47;22.60;74.60
35409;DHT22;34503;45.296;9.514;2024-03-17T00:03:03;22.50;74.60
35409;DHT22;34503;45.296;9.514;2024-03-17T00:03:18;22.50;74.80
35409;DHT22;34503;45.296;9.514;2024-03-17T00:03:33;22.50;75.20
35409;DHT22;34503;45.296;9.514;2024-03-17T00:03:47;22.50;75.90
35409;DHT22;34503;45.296;9.514;2024-03-17T00:04:02;22.60;76.90
35409;DHT22;34503;45.296;9.514;2024-03-17T00:04:17;22.50;77.10
35409;DHT22;34503;45.296;9.514;2024-03-17T00:04:48;22.40;76.80
35409;DHT22;34503;45.296;9.514;2024-03-17T00:05:03;22.50;77.80
35409;DHT22;34503;45.296;9.514;2024-03-17T00:05:35;22.40;73.70
35409;DHT22;34503;45.296;9.514;2024-03-17T00:05:54;22.50;73.00
35409;DHT22;34503;45.296;9.514;2024-03-17T00:06:11;22.50;72.20
35409;DHT22;34503;45.296;9.514;2024-03-17T00:06:26;22.50;71.90
35409;DHT22;34503;45.296;9.514;2024-03-17T00:06:42;22.40;71.60
35409;DHT22;34503;45.296;9.514;2024-03-17T00:06:57;22.40;71.50
35409;DHT22;34503;45.296;9.514;2024-03-17T00:07:12;22.40;71.50
35409;DHT22;34503;45.296;9.514;2024-03-17T00:07:27;22.40;71.40
35409;DHT22;34503;45.296;9.514;2024-03-17T00:07:42;22.40;71.60
35409;DHT22;34503;45.296;9.514;2024-03-17T00:07:57;22.40;71.60
35409;DHT22;34503;45.296;9.514;2024-03-17T00:08:11;22.40;71.50
35409;DHT22;34503;45.296;9.514;2024-03-17T00:08:26;22.40;71.60
35409;DHT22;34503;45.296;9.514;2024-03-17T00:08:42;22.40;71.60
35409;DHT22;34503;45.296;9.514;2024-03-17T00:08:57;22.40;71.70
35409;DHT22;34503;45.296;9.514;2024-03-17T00:09:12;22.40;71.70
35409;DHT22;34503;45.296;9.514;2024-03-17T00:09:27;22.40;71.70
35409;DHT22;34503;45.296;9.514;2024-03-17T00:09:44;22.50;71.80
35409;DHT22;34503;45.296;9.514;2024-03-17T00:09:59;22.40;72.00
35409;DHT22;34503;45.296;9.514;2024-03-17T00:10:14;22.40;72.30
35409;DHT22;34503;45.296;9.514;2024-03-17T00:10:29;22.40;72.30
35409;DHT22;34503;45.296;9.514;2024-03-17T00:10:49;22.40;72.50
35409;DHT22;34503;45.296;9.514;2024-03-17T00:11:05;22.40;72.50
35409;DHT22;34503;45.296;9.514;2024-03-17T00:11:20;22.40;72.80
35409;DHT22;34503;45.296;9.514;2024-03-17T00:11:35;22.40;72.80
35409;DHT22;34503;45.296;9.514;2024-03-17T00:11:50;22.40;72.90
35409;DHT22;34503;45.296;9.514;2024-03-17T00:12:05;22.40;73.10
35409;DHT22;34503;45.296;9.514;2024-03-17T00:12:21;22.40;73.00
35409;DHT22;34503;45.296;9.514;2024-03-17T00:12:36;22.40;73.00
35409;DHT22;34503;45.296;9.514;2024-03-17T00:12:52;22.40;73.10
35409;DHT22;34503;45.296;9.514;2024-03-17T00:13:06;22.40;73.20
35409;DHT22;34503;45.296;9.514;2024-03-17T00:13:22;22.30;73.20
35409;DHT22;34503;45.296;9.514;2024-03-17T00:13:38;22.40;73.30
35409;DHT22;34503;45.296;9.514;2024-03-17T00:13:52;22.40;73.30
35409;DHT22;34503;45.296;9.514;2024-03-17T00:14:07;22.40;73.30
35409;DHT22;34503;45.296;9.514;2024-03-17T00:14:22;22.40;73.50
35409;DHT22;34503;45.296;9.514;2024-03-17T00:14:37;22.40;73.70
35409;DHT22;34503;45.296;9.514;2024-03-17T00:14:53;22.40;73.80
35409;DHT22;34503;45.296;9.514;2024-03-17T00:15:08;22.40;73.90
35409;DHT22;34503;45.296;9.514;2024-03-17T00:15:23;22.30;73.70
35409;DHT22;34503;45.296;9.514;2024-03-17T00:15:38;22.40;74.40
35409;DHT22;34503;45.296;9.514;2024-03-17T00:15:53;22.40;74.80
35409;DHT22;34503;45.296;9.514;2024-03-17T00:16:07;22.40;75.20
35409;DHT22;34503;45.296;9.514;2024-03-17T00:16:23;22.40;76.30
35409;DHT22;34503;45.296;9.514;2024-03-17T00:16:53;22.30;76.60
35409;DHT22;34503;45.296;9.514;2024-03-17T00:17:09;22.40;76.90
35409;DHT22;34503;45.296;9.514;2024-03-17T00:17:23;22.40;76.60
35409;DHT22;34503;45.296;9.514;2024-03-17T00:17:38;22.30;77.80
35409;DHT22;34503;45.296;9.514;2024-03-17T00:17:53;22.40;77.80
35409;DHT22;34503;45.296;9.514;2024-03-17T00:18:08;22.70;77.60
35409;DHT22;34503;45.296;9.514;2024-03-17T00:18:24;22.30;74.50
35409;DHT22;34503;45.296;9.514;2024-03-17T00:18:40;22.40;74.10
35409;DHT22;34503;45.296;9.514;2024-03-17T00:18:55;22.40;74.00
35409;DHT22;34503;45.296;9.514;2024-03-17T00:19:10;22.40;74.20
35409;DHT22;34503;45.296;9.514;2024-03-17T00:19:25;22.30;74.30
35409;DHT22;34503;45.296;9.514;2024-03-17T00:19:40;22.30;74.00
35409;DHT22;34503;45.296;9.514;2024-03-17T00:19:55;22.30;73.00
35409;DHT22;34503;45.296;9.514;2024-03-17T00:20:10;22.30;72.70
35409;DHT22;34503;45.296;9.514;2024-03-17T00:20:33;22.30;72.40
35409;DHT22;34503;45.296;9.514;2024-03-17T00:20:48;22.30;72.40
35409;DHT22;34503;45.296;9.514;2024-03-17T00:21:02;22.30;72.60
35409;DHT22;34503;45.296;9.514;2024-03-17T00:21:18;22.30;72.60
35409;DHT22;34503;45.296;9.514;2024-03-17T00:21:34;22.30;72.60
35409;DHT22;34503;45.296;9.514;2024-03-17T00:21:49;22.30;72.50
35409;DHT22;34503;45.296;9.514;2024-03-17T00:22:07;22.20;72.10
35409;DHT22;34503;45.296;9.514;2024-03-17T00:22:28;22.30;72.50
35409;DHT22;34503;45.296;9.514;2024-03-17T00:22:43;22.30;72.50
35409;DHT22;34503;45.296;9.514;2024-03-17T00:22:57;22.30;72.60
35409;DHT22;34503;45.296;9.514;2024-03-17T00:23:12;22.30;72.60
35409;DHT22;34503;45.296;9.514;2024-03-17T00:23:27;22.30;72.60
35409;DHT22;34503;45.296;9.514;2024-03-17T00:23:42;22.30;72.60
35409;DHT22;34503;45.296;9.514;2024-03-17T00:23:57;22.20;72.60
35409;DHT22;34503;45.296;9.514;2024-03-17T00:24:12;22.30;72.90
35409;DHT22;34503;45.296;9.514;2024-03-17T00:24:28;22.30;73.00
35409;DHT22;34503;45.296;9.514;2024-03-17T00:24:49;22.20;73.10
35409;DHT22;34503;45.296;9.514;2024-03-17T00:25:03;22.30;73.50
35409;DHT22;34503;45.296;9.514;2024-03-17T00:25:19;22.20;73.80
35409;DHT22;34503;45.296;9.514;2024-03-17T00:25:34;22.20;74.00
35409;DHT22;34503;45.296;9.514;2024-03-17T00:25:50;22.20;73.90
35409;DHT22;34503;45.296;9.514;2024-03-17T00:26:05;22.20;74.20
35409;DHT22;34503;45.296;9.514;2024-03-17T00:26:20;22.30;74.20
35409;DHT22;34503;45.296;9.514;2024-03-17T00:26:35;22.30;74.30
35409;DHT22;34503;45.296;9.514;2024-03-17T00:26:50;22.20;74.30
35409;DHT22;34503;45.296;9.514;2024-03-17T00:27:04;22.30;74.40
35409;DHT22;34503;45.296;9.514;2024-03-17T00:27:20;22.20;74.20
35409;DHT22;34503;45.296;9.514;2024-03-17T00:27:34;22.20;74.20
35409;DHT22;34503;45.296;9.514;2024-03-17T00:27:59;22.20;74.30
35409;DHT22;34503;45.296;9.514;2024-03-17T00:28:15;22.20;74.70
35409;DHT22;34503;45.296;9.514;2024-03-17T00:28:30;22.20;74.80
35409;DHT22;34503;45.296;9.514;2024-03-17T00:28:45;22.20;75.20
35409;DHT22;34503;45.296;9.514;2024-03-17T00:29:02;22.20;75.20
35409;DHT22;34503;45.296;9.514;2024-03-17T00:29:17;22.20;75.40
35409;DHT22;34503;45.296;9.514;2024-03-17T00:29:32;22.20;75.80
35409;DHT22;34503;45.296;9.514;2024-03-17T00:29:47;22.20;76.10
35409;DHT22;34503;45.296;9.514;2024-03-17T00:30:02;22.20;76.10
35409;DHT22;34503;45.296;9.514;2024-03-17T00:30:17;22.10;76.60
35409;DHT22;34503;45.296;9.514;2024-03-17T00:30:32;22.30;77.80
35409;DHT22;34503;45.296;9.514;2024-03-17T00:31:19;22.40;78.60
35409;DHT22;34503;45.296;9.514;2024-03-17T00:31:55;22.30;76.80
35409;DHT22;34503;45.296;9.514;2024-03-17T00:32:10;22.20;76.40
35409;DHT22;34503;45.296;9.514;2024-03-17T00:32:25;22.20;75.60
35409;DHT22;34503;45.296;9.514;2024-03-17T00:32:41;22.20;74.90
35409;DHT22;34503;45.296;9.514;2024-03-17T00:32:56;22.20;74.50
35409;DHT22;34503;45.296;9.514;2024-03-17T00:33:14;22.20;74.10
35409;DHT22;34503;45.296;9.514;2024-03-17T00:33:29;22.20;74.20
35409;DHT22;34503;45.296;9.514;2024-03-17T00:33:44;22.20;74.10
35409;DHT22;34503;45.296;9.514;2024-03-17T00:33:59;22.20;73.90
35409;DHT22;34503;45.296;9.514;2024-03-17T00:34:14;22.20;73.90
35409;DHT22;34503;45.296;9.514;2024-03-17T00:34:29;22.20;73.80
35409;DHT22;34503;45.296;9.514;2024-03-17T00:34:44;22.20;73.90
35409;DHT22;34503;45.296;9.514;2024-03-17T00:34:59;22.20;73.90
35409;DHT22;34503;45.296;9.514;2024-03-17T00:35:14;22.20;74.00
35409;DHT22;34503;45.296;9.514;2024-03-17T00:35:34;22.20;74.00
35409;DHT22;34503;45.296;9.514;2024-03-17T00:35:49;22.20;74.00
35409;DHT22;34503;45.296;9.514;2024-03-17T00:36:05;22.10;74.00
35409;DHT22;34503;45.296;9.514;2024-03-17T00:36:21;22.20;74.00
35409;DHT22;34503;45.296;9.514;2024-03-17T00:36:35;22.20;74.20
35409;DHT22;34503;45.296;9.514;2024-03-17T00:36:50;22.20;74.30
35409;DHT22;34503;45.296;9.514;2024-03-17T00:37:08;22.10;74.40
35409;DHT22;34503;45.296;9.514;2024-03-17T00:37:23;22.20;74.60
35409;DHT22;34503;45.296;9.514;2024-03-17T00:37:38;22.20;74.50
35409;DHT22;34503;45.296;9.514;2024-03-17T00:37:53;22.20;74.80
35409;DHT22;34503;45.296;9.514;2024-03-17T00:38:08;22.20;75.20
35409;DHT22;34503;45.296;9.514;2024-03-17T00:38:25;22.20;75.40
35409;DHT22;34503;45.296;9.514;2024-03-17T00:38:40;22.20;75.50
35409;DHT22;34503;45.296;9.514;2024-03-17T00:38:55;22.20;75.70
35409;DHT22;34503;45.296;9.514;2024-03-17T00:39:11;22.10;75.70
35409;DHT22;34503;45.296;9.514;2024-03-17T00:39:26;22.10;76.30
35409;DHT22;34503;45.296;9.514;2024-03-17T00:39:41;22.10;76.80
35409;DHT22;34503;45.296;9.514;2024-03-17T00:39:56;22.20;76.60
35409;DHT22;34503;45.296;9.514;2024-03-17T00:40:12;22.20;77.20
35409;DHT22;34503;45.296;9.514;2024-03-17T00:40:26;22.20;78.50
35409;DHT22;34503;45.296;9.514;2024-03-17T00:40:42;22.20;79.30
35409;DHT22;34503;45.296;9.514;2024-03-17T00:40:56;22.20;82.70
35409;DHT22;34503;45.296;9.514;2024-03-17T00:41:11;22.10;75.30
35409;DHT22;34503;45.296;9.514;2024-03-17T00:41:26;22.10;74.10
35409;DHT22;34503;45.296;9.514;2024-03-17T00:41:41;22.10;73.90
35409;DHT22;34503;45.296;9.514;2024-03-17T00:41:56;22.10;73.60
35409;DHT22;34503;45.296;9.514;2024-03-17T00:42:11;22.10;73.20
35409;DHT22;34503;45.296;9.514;2024-03-17T00:42:26;22.10;72.90
35409;DHT22;34503;45.296;9.514;2024-03-17T00:42:41;22.10;72.70
35409;DHT22;34503;45.296;9.514;2024-03-17T00:42:56;22.10;72.60
35409;DHT22;34503;45.296;9.514;2024-03-17T00:43:11;22.10;72.60
35409;DHT22;34503;45.296;9.514;2024-03-17T00:43:26;22.10;72.40
35409;DHT22;34503;45.296;9.514;2024-03-17T00:43:41;22.10;72.60
35409;DHT22;34503;45.296;9.514;2024-03-17T00:43:56;22.10;72.70
35409;DHT22;34503;45.296;9.514;2024-03-17T00:44:11;22.10;72.70
35409;DHT22;34503;45.296;9.514;2024-03-17T00:44:26;22.10;72.50
35409;DHT22;34503;45.296;9.514;2024-03-17T00:44:41;22.10;72.30
35409;DHT22;34503;45.296;9.514;2024-03-17T00:44:56;22.10;72.30
35409;DHT22;34503;45.296;9.514;2024-03-17T00:45:11;22.10;72.40
35409;DHT22;34503;45.296;9.514;2024-03-17T00:45:26;22.10;72.60
35409;DHT22;34503;45.296;9.514;2024-03-17T00:45:41;22.10;72.50
35409;DHT22;34503;45.296;9.514;2024-03-17T00:45:56;22.10;72.60
35409;DHT22;34503;45.296;9.514;2024-03-17T00:46:11;22.10;72.70
35409;DHT22;34503;45.296;9.514;2024-03-17T00:46:26;22.10;73.10
35409;DHT22;34503;45.296;9.514;2024-03-17T00:46:41;22.10;73.80
35409;DHT22;34503;45.296;9.514;2024-03-17T00:46:56;22.10;73.70
35409;DHT22;34503;45.296;9.514;2024-03-17T00:47:11;22.10;73.80
35409;DHT22;34503;45.296;9.514;2024-03-17T00:47:26;22.10;73.90
35409;DHT22;34503;45.296;9.514;2024-03-17T00:47:41;22.10;73.90
35409;DHT22;34503;45.296;9.514;2024-03-17T00:47:56;22.10;74.00
35409;DHT22;34503;45.296;9.514;2024-03-17T00:48:11;22.10;73.90
35409;DHT22;34503;45.296;9.514;2024-03-17T00:48:25;22.10;73.80
35409;DHT22;34503;45.296;9.514;2024-03-17T00:48:40;22.10;73.70
35409;DHT22;34503;45.296;9.514;2024-03-17T00:48:55;22.10;73.80
35409;DHT22;34503;45.296;9.514;2024-03-17T00:49:10;22.10;73.70
35409;DHT22;34503;45.296;9.514;2024-03-17T00:49:27;22.10;73.60
35409;DHT22;34503;45.296;9.514;2024-03-17T00:49:42;22.10;73.50
35409;DHT22;34503;45.296;9.514;2024-03-17T00:49:56;22.10;73.50
35409;DHT22;34503;45.296;9.514;2024-03-17T00:50:11;22.10;73.60
35409;DHT22;34503;45.296;9.514;2024-03-17T00:50:27;22.10;73.70
35409;DHT22;34503;45.296;9.514;2024-03-17T00:50:41;22.10;73.70
35409;DHT22;34503;45.296;9.514;2024-03-17T00:50:59;22.10;73.80
35409;DHT22;34503;45.296;9.514;2024-03-17T00:51:13;22.10;73.70
35409;DHT22;34503;45.296;9.514;2024-03-17T00:51:28;22.10;73.70
35409;DHT22;34503;45.296;9.514;2024-03-17T00:51:43;22.10;73.70
35409;DHT22;34503;45.296;9.514;2024-03-17T00:51:58;22.10;73.80
35409;DHT22;34503;45.296;9.514;2024-03-17T00:52:13;22.10;73.70
35409;DHT22;34503;45.296;9.514;2024-03-17T00:52:28;22.10;73.60
35409;DHT22;34503;45.296;9.514;2024-03-17T00:52:43;22.10;73.60
35409;DHT22;34503;45.296;9.514;2024-03-17T00:52:58;22.10;73.70
35409;DHT22;34503;45.296;9.514;2024-03-17T00:53:14;22.00;73.80
35409;DHT22;34503;45.296;9.514;2024-03-17T00:53:29;22.10;73.90
35409;DHT22;34503;45.296;9.514;2024-03-17T00:53:44;22.10;74.00
35409;DHT22;34503;45.296;9.514;2024-03-17T00:53:59;22.10;74.00
35409;DHT22;34503;45.296;9.514;2024-03-17T00:54:14;22.00;74.00
35409;DHT22;34503;45.296;9.514;2024-03-17T00:54:29;22.10;74.10
35409;DHT22;34503;45.296;9.514;2024-03-17T00:54:46;22.10;74.00
35409;DHT22;34503;45.296;9.514;2024-03-17T00:55:02;22.00;73.80
35409;DHT22;34503;45.296;9.514;2024-03-17T00:55:37;22.00;73.70
35409;DHT22;34503;45.296;9.514;2024-03-17T00:55:52;22.00;73.70
35409;DHT22;34503;45.296;9.514;2024-03-17T00:56:08;22.00;74.00
35409;DHT22;34503;45.296;9.514;2024-03-17T00:56:23;22.00;74.10
35409;DHT22;34503;45.296;9.514;2024-03-17T00:56:37;22.00;74.20
35409;DHT22;34503;45.296;9.514;2024-03-17T00:56:52;22.00;74.20
35409;DHT22;34503;45.296;9.514;2024-03-17T00:57:07;22.00;74.20
35409;DHT22;34503;45.296;9.514;2024-03-17T00:57:23;22.00;74.30
35409;DHT22;34503;45.296;9.514;2024-03-17T00:57:38;22.00;74.30
35409;DHT22;34503;45.296;9.514;2024-03-17T00:57:53;22.00;74.30
35409;DHT22;34503;45.296;9.514;2024-03-17T00:58:08;22.00;74.30
35409;DHT22;34503;45.296;9.514;2024-03-17T00:58:23;22.00;74.90
35409;DHT22;34503;45.296;9.514;2024-03-17T00:58:39;22.00;74.20
35409;DHT22;34503;45.296;9.514;2024-03-17T00:58:53;22.00;74.30
35409;DHT22;34503;45.296;9.514;2024-03-17T00:59:08;22.00;74.30
35409;DHT22;34503;45.296;9.514;2024-03-17T00:59:23;22.00;74.30
35409;DHT22;34503;45.296;9.514;2024-03-17T00:59:38;22.00;74.20
35409;DHT22;34503;45.296;9.514;2024-03-17T00:59:53;22.00;74.20
35409;DHT22;34503;45.296;9.514;2024-03-17T01:00:08;22.00;74.20
35409;DHT22;34503;45.296;9.514;2024-03-17T01:00:26;22.00;74.20
35409;DHT22;34503;45.296;9.514;2024-03-17T01:00:41;22.00;74.20
35409;DHT22;34503;45.296;9.514;2024-03-17T01:00:55;22.00;74.30
35409;DHT22;34503;45.296;9.514;2024-03-17T01:01:10;22.00;74.40
35409;DHT22;34503;45.296;9.514;2024-03-17T01:01:25;22.00;74.30
35409;DHT22;34503;45.296;9.514;2024-03-17T01:01:40;22.00;74.30
35409;DHT22;34503;45.296;9.514;2024-03-17T01:01:55;22.00;74.40
35409;DHT22;34503;45.296;9.514;2024-03-17T01:02:12;22.00;74.40
35409;DHT22;34503;45.296;9.514;2024-03-17T01:02:30;22.00;74.50
35409;DHT22;34503;45.296;9.514;2024-03-17T01:02:45;22.00;74.60
35409;DHT22;34503;45.296;9.514;2024-03-17T01:03:00;22.00;74.70
35409;DHT22;34503;45.296;9.514;2024-03-17T01:03:15;22.00;74.80
35409;DHT22;34503;45.296;9.514;2024-03-17T01:03:30;22.00;74.90
35409;DHT22;34503;45.296;9.514;2024-03-17T01:03:46;22.00;75.10
35409;DHT22;34503;45.296;9.514;2024-03-17T01:04:02;22.00;75.00
35409;DHT22;34503;45.296;9.514;2024-03-17T01:04:17;22.00;75.00
35409;DHT22;34503;45.296;9.514;2024-03-17T01:04:31;22.00;75.10
35409;DHT22;34503;45.296;9.514;2024-03-17T01:04:48;22.00;75.00
35409;DHT22;34503;45.296;9.514;2024-03-17T01:05:03;22.10;75.20
35409;DHT22;34503;45.296;9.514;2024-03-17T01:05:19;22.00;75.30
35409;DHT22;34503;45.296;9.514;2024-03-17T01:05:34;22.00;75.50
35409;DHT22;34503;45.296;9.514;2024-03-17T01:05:56;22.00;75.80
35409;DHT22;34503;45.296;9.514;2024-03-17T01:06:11;22.00;75.90
35409;DHT22;34503;45.296;9.514;2024-03-17T01:06:26;22.00;76.30
35409;DHT22;34503;45.296;9.514;2024-03-17T01:06:41;22.00;76.60
35409;DHT22;34503;45.296;9.514;2024-03-17T01:06:55;22.00;76.90
35409;DHT22;34503;45.296;9.514;2024-03-17T01:07:26;22.00;76.30
35409;DHT22;34503;45.296;9.514;2024-03-17T01:07:41;22.00;77.00
35409;DHT22;34503;45.296;9.514;2024-03-17T01:07:56;22.00;78.30
35409;DHT22;34503;45.296;9.514;2024-03-17T01:08:46;22.00;75.50
35409;DHT22;34503;45.296;9.514;2024-03-17T01:09:00;22.00;76.00
35409;DHT22;34503;45.296;9.514;2024-03-17T01:09:15;22.00;75.60
35409;DHT22;34503;45.296;9.514;2024-03-17T01:09:30;22.00;75.00
35409;DHT22;34503;45.296;9.514;2024-03-17T01:09:46;22.00;75.00
35409;DHT22;34503;45.296;9.514;2024-03-17T01:10:02;22.00;74.60
35409;DHT22;34503;45.296;9.514;2024-03-17T01:10:18;22.00;74.10
35409;DHT22;34503;45.296;9.514;2024-03-17T01:10:33;22.00;74.20
35409;DHT22;34503;45.296;9.514;2024-03-17T01:10:50;22.00;74.30
35409;DHT22;34503;45.296;9.514;2024-03-17T01:11:05;22.00;74.00
35409;DHT22;34503;45.296;9.514;2024-03-17T01:11:22;22.00;73.80
35409;DHT22;34503;45.296;9.514;2024-03-17T01:11:39;22.00;73.60
35409;DHT22;34503;45.296;9.514;2024-03-17T01:11:54;22.00;73.60
35409;DHT22;34503;45.296;9.514;2024-03-17T01:12:08;22.00;73.50
35409;DHT22;34503;45.296;9.514;2024-03-17T01:12:23;22.00;73.60
35409;DHT22;34503;45.296;9.514;2024-03-17T01:12:40;22.00;74.00
35409;DHT22;34503;45.296;9.514;2024-03-17T01:12:55;22.00;74.30
35409;DHT22;34503;45.296;9.514;2024-03-17T01:13:09;22.00;74.30
35409;DHT22;34503;45.296;9.514;2024-03-17T01:13:24;22.00;74.60
35409;DHT22;34503;45.296;9.514;2024-03-17T01:13:39;22.00;74.60
35409;DHT22;34503;45.296;9.514;2024-03-17T01:13:55;22.00;74.60
35409;DHT22;34503;45.296;9.514;2024-03-17T01:14:10;22.00;74.30
35409;DHT22;34503;45.296;9.514;2024-03-17T01:14:25;22.00;74.30
35409;DHT22;34503;45.296;9.514;2024-03-17T01:14:40;22.00;74.30
35409;DHT22;34503;45.296;9.514;2024-03-17T01:14:55;22.00;74.20
35409;DHT22;34503;45.296;9.514;2024-03-17T01:15:09;22.00;74.20
35409;DHT22;34503;45.296;9.514;2024-03-17T01:15:25;21.90;74.00
35409;DHT22;34503;45.296;9.514;2024-03-17T01:15:40;21.90;74.00
35409;DHT22;34503;45.296;9.514;2024-03-17T01:15:55;22.00;74.10
35409;DHT22;34503;45.296;9.514;2024-03-17T01:16:10;22.00;74.10
35409;DHT22;34503;45.296;9.514;2024-03-17T01:16:25;22.00;73.90
35409;DHT22;34503;45.296;9.514;2024-03-17T01:16:40;22.00;73.90
35409;DHT22;34503;45.296;9.514;2024-03-17T01:16:55;22.00;73.80
35409;DHT22;34503;45.296;9.514;2024-03-17T01:17:10;21.90;73.80
35409;DHT22;34503;45.296;9.514;2024-03-17T01:17:25;22.00;73.90
35409;DHT22;34503;45.296;9.514;2024-03-17T01:17:40;22.00;73.90
35409;DHT22;34503;45.296;9.514;2024-03-17T01:17:55;22.00;73.90
35409;DHT22;34503;45.296;9.514;2024-03-17T01:18:10;22.00;73.90
35409;DHT22;34503;45.296;9.514;2024-03-17T01:18:25;22.00;73.90
35409;DHT22;34503;45.296;9.514;2024-03-17T01:18:40;22.00;73.90
35409;DHT22;34503;45.296;9.514;2024-03-17T01:18:54;21.90;73.80
35409;DHT22;34503;45.296;9.514;2024-03-17T01:19:09;22.00;73.80
35409;DHT22;34503;45.296;9.514;2024-03-17T01:19:24;22.00;73.80
35409;DHT22;34503;45.296;9.514;2024-03-17T01:19:40;21.90;73.80
35409;DHT22;34503;45.296;9.514;2024-03-17T01:19:55;22.00;73.80
35409;DHT22;34503;45.296;9.514;2024-03-17T01:20:10;21.90;73.70
35409;DHT22;34503;45.296;9.514;2024-03-17T01:20:26;21.90;73.70
35409;DHT22;34503;45.296;9.514;2024-03-17T01:20:41;21.90;73.80
35409;DHT22;34503;45.296;9.514;2024-03-17T01:20:55;21.90;73.90
35409;DHT22;34503;45.296;9.514;2024-03-17T01:21:10;21.90;73.90
35409;DHT22;34503;45.296;9.514;2024-03-17T01:21:26;21.90;73.80
35409;DHT22;34503;45.296;9.514;2024-03-17T01:21:41;21.90;73.80
35409;DHT22;34503;45.296;9.514;2024-03-17T01:21:56;21.90;73.80
35409;DHT22;34503;45.296;9.514;2024-03-17T01:22:11;22.00;73.90
35409;DHT22;34503;45.296;9.514;2024-03-17T01:22:25;22.00;74.00
35409;DHT22;34503;45.296;9.514;2024-03-17T01:22:40;21.90;74.00
35409;DHT22;34503;45.296;9.514;2024-03-17T01:22:56;21.90;73.90
35409;DHT22;34503;45.296;9.514;2024-03-17T01:23:11;21.90;73.80
35409;DHT22;34503;45.296;9.514;2024-03-17T01:23:25;21.90;74.00
35409;DHT22;34503;45.296;9.514;2024-03-17T01:23:40;21.90;73.90
35409;DHT22;34503;45.296;9.514;2024-03-17T01:23:55;21.90;74.00
35409;DHT22;34503;45.296;9.514;2024-03-17T01:24:10;21.90;73.90
35409;DHT22;34503;45.296;9.514;2024-03-17T01:24:25;21.90;73.90
35409;DHT22;34503;45.296;9.514;2024-03-17T01:24:40;21.90;73.90
35409;DHT22;34503;45.296;9.514;2024-03-17T01:25:00;21.90;73.90
35409;DHT22;34503;45.296;9.514;2024-03-17T01:25:15;21.90;74.00
35409;DHT22;34503;45.296;9.514;2024-03-17T01:25:30;21.90;74.00
35409;DHT22;34503;45.296;9.514;2024-03-17T01:25:45;21.90;73.80
35409;DHT22;34503;45.296;9.514;2024-03-17T01:26:00;21.90;73.80
35409;DHT22;34503;45.296;9.514;2024-03-17T01:26:14;21.90;73.90
35409;DHT22;34503;45.296;9.514;2024-03-17T01:26:29;21.90;73.90
35409;DHT22;34503;45.296;9.514;2024-03-17T01:26:44;21.90;73.90
35409;DHT22;34503;45.296;9.514;2024-03-17T01:27:00;21.90;74.50
35409;DHT22;34503;45.296;9.514;2024-03-17T01:27:15;21.80;73.70
35409;DHT22;34503;45.296;9.514;2024-03-17T01:27:30;21.90;74.00
35409;DHT22;34503;45.296;9.514;2024-03-17T01:27:45;21.90;74.00
35409;DHT22;34503;45.296;9.514;2024-03-17T01:28:00;21.90;74.00
35409;DHT22;34503;45.296;9.514;2024-03-17T01:28:35;21.90;74.00
35409;DHT22;34503;45.296;9.514;2024-03-17T01:28:50;21.90;74.20
35409;DHT22;34503;45.296;9.514;2024-03-17T01:29:05;21.90;74.20
35409;DHT22;34503;45.296;9.514;2024-03-17T01:29:19;21.90;74.50
35409;DHT22;34503;45.296;9.514;2024-03-17T01:29:34;21.90;74.50
35409;DHT22;34503;45.296;9.514;2024-03-17T01:29:49;21.90;74.50
35409;DHT22;34503;45.296;9.514;2024-03-17T01:30:04;21.90;74.60
35409;DHT22;34503;45.296;9.514;2024-03-17T01:30:19;21.90;74.70
35409;DHT22;34503;45.296;9.514;2024-03-17T01:30:34;21.90;75.00
35409;DHT22;34503;45.296;9.514;2024-03-17T01:30:49;21.90;75.00
35409;DHT22;34503;45.296;9.514;2024-03-17T01:31:07;21.90;75.00
35409;DHT22;34503;45.296;9.514;2024-03-17T01:31:22;21.90;75.10
35409;DHT22;34503;45.296;9.514;2024-03-17T01:31:37;21.90;75.10
35409;DHT22;34503;45.296;9.514;2024-03-17T01:31:52;21.90;75.10
35409;DHT22;34503;45.296;9.514;2024-03-17T01:32:06;21.90;75.00
35409;DHT22;34503;45.296;9.514;2024-03-17T01:32:21;21.90;74.90
35409;DHT22;34503;45.296;9.514;2024-03-17T01:32:36;21.90;74.90
35409;DHT22;34503;45.296;9.514;2024-03-17T01:32:51;21.90;74.90
35409;DHT22;34503;45.296;9.514;2024-03-17T01:33:06;21.90;74.80
35409;DHT22;34503;45.296;9.514;2024-03-17T01:33:21;21.90;74.80
35409;DHT22;34503;45.296;9.514;2024-03-17T01:33:35;21.90;74.80
35409;DHT22;34503;45.296;9.514;2024-03-17T01:33:50;21.90;74.90
35409;DHT22;34503;45.296;9.514;2024-03-17T01:34:05;21.90;74.90
35409;DHT22;34503;45.296;9.514;2024-03-17T01:34:20;21.90;74.90
35409;DHT22;34503;45.296;9.514;2024-03-17T01:34:36;21.90;74.90
35409;DHT22;34503;45.296;9.514;2024-03-17T01:34:52;21.90;75.00
35409;DHT22;34503;45.296;9.514;2024-03-17T01:35:07;21.90;75.10
35409;DHT22;34503;45.296;9.514;2024-03-17T01:35:22;21.90;75.10
35409;DHT22;34503;45.296;9.514;2024-03-17T01:35:37;21.90;75.30
35409;DHT22;34503;45.296;9.514;2024-03-17T01:35:52;21.90;75.30
35409;DHT22;34503;45.296;9.514;2024-03-17T01:36:07;21.90;75.30
35409;DHT22;34503;45.296;9.514;2024-03-17T01:36:22;21.90;75.30
35409;DHT22;34503;45.296;9.514;2024-03-17T01:36:37;21.90;75.40
35409;DHT22;34503;45.296;9.514;2024-03-17T01:36:52;21.90;75.50
35409;DHT22;34503;45.296;9.514;2024-03-17T01:37:07;21.90;75.50
35409;DHT22;34503;45.296;9.514;2024-03-17T01:37:22;21.90;75.50
35409;DHT22;34503;45.296;9.514;2024-03-17T01:37:37;21.90;75.50
35409;DHT22;34503;45.296;9.514;2024-03-17T01:37:52;21.90;75.70
35409;DHT22;34503;45.296;9.514;2024-03-17T01:38:07;21.90;75.60
35409;DHT22;34503;45.296;9.514;2024-03-17T01:38:24;21.90;75.80
35409;DHT22;34503;45.296;9.514;2024-03-17T01:38:39;21.90;75.90
35409;DHT22;34503;45.296;9.514;2024-03-17T01:38:54;21.90;75.90
35409;DHT22;34503;45.296;9.514;2024-03-17T01:39:08;21.90;76.00
35409;DHT22;34503;45.296;9.514;2024-03-17T01:39:23;21.90;76.30
35409;DHT22;34503;45.296;9.514;2024-03-17T01:39:38;21.90;76.40
35409;DHT22;34503;45.296;9.514;2024-03-17T01:39:53;21.90;76.40
35409;DHT22;34503;45.296;9.514;2024-03-17T01:40:08;21.90;76.60
35409;DHT22;34503;45.296;9.514;2024-03-17T01:40:24;21.90;77.10
35409;DHT22;34503;45.296;9.514;2024-03-17T01:40:39;21.90;77.30